sensor_id;sensor_type;location;lat;lon;timestamp;P1;durP1;ratioP1;P2;durP2;ratioP2
9821;SDS011;4950;46.042;14.472;2023-03-01T00:01:54;39.42;;;24.10;;
9821;SDS011;4950;46.042;14.472;2023-03-01T00:04:22;35.42;;;22.45;;
9821;SDS011;4950;46.042;14.472;2023-03-01T00:06:48;39.42;;;23.02;;
9821;SDS011;4950;46.042;14.472;2023-03-01T00:09:15;35.83;;;22.23;;
9821;SDS011;4950;46.042;14.472;2023-03-01T00:11:42;40.70;;;23.50;;
9821;SDS011;4950;46.042;14.472;2023-03-01T00:14:09;36.10;;;22.35;;
9821;SDS011;4950;46.042;14.472;2023-03-01T00:16:36;44.15;;;23.50;;
9821;SDS011;4950;46.042;14.472;2023-03-01T00:19:05;39.03;;;22.85;;
9821;SDS011;4950;46.042;14.472;2023-03-01T00:21:34;36.80;;;23.03;;
9821;SDS011;4950;46.042;14.472;2023-03-01T00:24:01;32.77;;;21.73;;
9821;SDS011;4950;46.042;14.472;2023-03-01T00:26:28;36.57;;;22.30;;
9821;SDS011;4950;46.042;14.472;2023-03-01T00:28:57;37.80;;;22.45;;
9821;SDS011;4950;46.042;14.472;2023-03-01T00:31:25;35.77;;;22.97;;
9821;SDS011;4950;46.042;14.472;2023-03-01T00:33:54;35.60;;;21.33;;
9821;SDS011;4950;46.042;14.472;2023-03-01T00:36:23;40.60;;;22.42;;
9821;SDS011;4950;46.042;14.472;2023-03-01T00:38:52;38.17;;;22.43;;
9821;SDS011;4950;46.042;14.472;2023-03-01T00:41:19;38.05;;;21.58;;
9821;SDS011;4950;46.042;14.472;2023-03-01T00:43:48;37.93;;;22.60;;
9821;SDS011;4950;46.042;14.472;2023-03-01T00:46:16;34.80;;;22.45;;
9821;SDS011;4950;46.042;14.472;2023-03-01T00:48:44;37.47;;;23.17;;
9821;SDS011;4950;46.042;14.472;2023-03-01T00:51:11;38.17;;;22.80;;
9821;SDS011;4950;46.042;14.472;2023-03-01T00:53:40;36.10;;;23.15;;
9821;SDS011;4950;46.042;14.472;2023-03-01T00:56:09;40.47;;;24.13;;
9821;SDS011;4950;46.042;14.472;2023-03-01T00:58:37;37.10;;;22.57;;
9821;SDS011;4950;46.042;14.472;2023-03-01T01:01:07;39.83;;;24.87;;
9821;SDS011;4950;46.042;14.472;2023-03-01T01:03:42;37.73;;;23.53;;
9821;SDS011;4950;46.042;14.472;2023-03-01T01:06:12;33.93;;;21.93;;
9821;SDS011;4950;46.042;14.472;2023-03-01T01:08:40;37.63;;;23.03;;
9821;SDS011;4950;46.042;14.472;2023-03-01T01:11:09;37.92;;;23.45;;
9821;SDS011;4950;46.042;14.472;2023-03-01T01:13:37;38.33;;;23.33;;
9821;SDS011;4950;46.042;14.472;2023-03-01T01:16:04;42.33;;;23.83;;
9821;SDS011;4950;46.042;14.472;2023-03-01T01:18:32;37.60;;;22.83;;
9821;SDS011;4950;46.042;14.472;2023-03-01T01:21:02;36.30;;;23.13;;
9821;SDS011;4950;46.042;14.472;2023-03-01T01:23:30;36.60;;;22.97;;
9821;SDS011;4950;46.042;14.472;2023-03-01T01:25:57;41.17;;;24.53;;
9821;SDS011;4950;46.042;14.472;2023-03-01T01:28:30;36.37;;;23.50;;
9821;SDS011;4950;46.042;14.472;2023-03-01T01:30:57;39.90;;;23.92;;
9821;SDS011;4950;46.042;14.472;2023-03-01T01:33:23;36.45;;;23.73;;
9821;SDS011;4950;46.042;14.472;2023-03-01T01:35:50;36.15;;;22.83;;
9821;SDS011;4950;46.042;14.472;2023-03-01T01:38:17;36.77;;;22.37;;
9821;SDS011;4950;46.042;14.472;2023-03-01T01:40:44;39.63;;;22.80;;
9821;SDS011;4950;46.042;14.472;2023-03-01T01:43:13;42.43;;;24.13;;
9821;SDS011;4950;46.042;14.472;2023-03-01T01:45:46;38.13;;;23.43;;
9821;SDS011;4950;46.042;14.472;2023-03-01T01:48:14;36.22;;;22.98;;
9821;SDS011;4950;46.042;14.472;2023-03-01T01:50:45;38.13;;;23.83;;
9821;SDS011;4950;46.042;14.472;2023-03-01T01:53:16;39.40;;;24.10;;
9821;SDS011;4950;46.042;14.472;2023-03-01T01:55:47;35.77;;;23.10;;
9821;SDS011;4950;46.042;14.472;2023-03-01T01:58:18;40.43;;;22.73;;
9821;SDS011;4950;46.042;14.472;2023-03-01T02:00:48;36.70;;;21.73;;
9821;SDS011;4950;46.042;14.472;2023-03-01T02:03:17;39.93;;;22.93;;
9821;SDS011;4950;46.042;14.472;2023-03-01T02:05:47;36.90;;;21.97;;
9821;SDS011;4950;46.042;14.472;2023-03-01T02:08:19;35.37;;;21.07;;
9821;SDS011;4950;46.042;14.472;2023-03-01T02:10:48;39.53;;;22.03;;
9821;SDS011;4950;46.042;14.472;2023-03-01T02:13:17;41.75;;;23.58;;
9821;SDS011;4950;46.042;14.472;2023-03-01T02:15:43;39.03;;;23.50;;
9821;SDS011;4950;46.042;14.472;2023-03-01T02:18:14;33.73;;;22.33;;
9821;SDS011;4950;46.042;14.472;2023-03-01T02:20:46;37.73;;;22.57;;
9821;SDS011;4950;46.042;14.472;2023-03-01T02:23:20;43.05;;;22.98;;
9821;SDS011;4950;46.042;14.472;2023-03-01T02:25:51;36.13;;;21.93;;
9821;SDS011;4950;46.042;14.472;2023-03-01T02:28:25;38.13;;;22.90;;
9821;SDS011;4950;46.042;14.472;2023-03-01T02:30:55;31.03;;;20.13;;
9821;SDS011;4950;46.042;14.472;2023-03-01T02:33:39;38.67;;;22.90;;
9821;SDS011;4950;46.042;14.472;2023-03-01T02:36:10;34.23;;;20.80;;
9821;SDS011;4950;46.042;14.472;2023-03-01T02:38:40;37.97;;;22.67;;
9821;SDS011;4950;46.042;14.472;2023-03-01T02:41:07;37.07;;;22.87;;
9821;SDS011;4950;46.042;14.472;2023-03-01T02:43:39;39.72;;;22.27;;
9821;SDS011;4950;46.042;14.472;2023-03-01T02:46:06;36.90;;;22.10;;
9821;SDS011;4950;46.042;14.472;2023-03-01T02:48:42;36.57;;;23.10;;
9821;SDS011;4950;46.042;14.472;2023-03-01T02:51:12;36.97;;;22.42;;
9821;SDS011;4950;46.042;14.472;2023-03-01T02:53:49;39.90;;;22.83;;
9821;SDS011;4950;46.042;14.472;2023-03-01T02:56:25;40.90;;;24.03;;
9821;SDS011;4950;46.042;14.472;2023-03-01T02:58:54;36.87;;;22.93;;
9821;SDS011;4950;46.042;14.472;2023-03-01T03:01:26;38.57;;;22.47;;
9821;SDS011;4950;46.042;14.472;2023-03-01T03:04:02;34.72;;;22.25;;
9821;SDS011;4950;46.042;14.472;2023-03-01T03:06:30;38.87;;;22.20;;
9821;SDS011;4950;46.042;14.472;2023-03-01T03:08:57;38.60;;;23.00;;
9821;SDS011;4950;46.042;14.472;2023-03-01T03:11:24;39.10;;;23.10;;
9821;SDS011;4950;46.042;14.472;2023-03-01T03:13:53;37.87;;;22.17;;
9821;SDS011;4950;46.042;14.472;2023-03-01T03:16:21;38.65;;;22.15;;
9821;SDS011;4950;46.042;14.472;2023-03-01T03:18:48;37.22;;;22.67;;
9821;SDS011;4950;46.042;14.472;2023-03-01T03:21:15;38.63;;;22.87;;
9821;SDS011;4950;46.042;14.472;2023-03-01T03:23:42;37.20;;;22.97;;
9821;SDS011;4950;46.042;14.472;2023-03-01T03:26:09;40.13;;;22.93;;
9821;SDS011;4950;46.042;14.472;2023-03-01T03:28:38;36.47;;;21.85;;
9821;SDS011;4950;46.042;14.472;2023-03-01T03:31:06;36.80;;;22.23;;
9821;SDS011;4950;46.042;14.472;2023-03-01T03:33:33;38.87;;;23.73;;
9821;SDS011;4950;46.042;14.472;2023-03-01T03:36:00;39.93;;;23.50;;
9821;SDS011;4950;46.042;14.472;2023-03-01T03:38:27;39.57;;;24.40;;
9821;SDS011;4950;46.042;14.472;2023-03-01T03:40:59;36.57;;;22.23;;
9821;SDS011;4950;46.042;14.472;2023-03-01T03:43:28;36.33;;;22.87;;
9821;SDS011;4950;46.042;14.472;2023-03-01T03:45:56;41.50;;;23.60;;
9821;SDS011;4950;46.042;14.472;2023-03-01T03:48:25;39.47;;;23.97;;
9821;SDS011;4950;46.042;14.472;2023-03-01T03:50:52;42.80;;;23.52;;
9821;SDS011;4950;46.042;14.472;2023-03-01T03:53:21;40.20;;;23.63;;
9821;SDS011;4950;46.042;14.472;2023-03-01T03:55:48;38.53;;;22.87;;
9821;SDS011;4950;46.042;14.472;2023-03-01T03:58:16;41.43;;;24.73;;
9821;SDS011;4950;46.042;14.472;2023-03-01T04:00:45;38.97;;;23.70;;
9821;SDS011;4950;46.042;14.472;2023-03-01T04:03:13;39.97;;;22.80;;
9821;SDS011;4950;46.042;14.472;2023-03-01T04:05:43;39.80;;;24.47;;
9821;SDS011;4950;46.042;14.472;2023-03-01T04:08:09;40.70;;;24.00;;
9821;SDS011;4950;46.042;14.472;2023-03-01T04:10:38;43.47;;;23.97;;
9821;SDS011;4950;46.042;14.472;2023-03-01T04:13:06;42.65;;;23.85;;
9821;SDS011;4950;46.042;14.472;2023-03-01T04:15:35;35.42;;;22.30;;
9821;SDS011;4950;46.042;14.472;2023-03-01T04:18:03;39.53;;;23.20;;
9821;SDS011;4950;46.042;14.472;2023-03-01T04:20:30;44.37;;;24.60;;
9821;SDS011;4950;46.042;14.472;2023-03-01T04:23:01;42.38;;;24.42;;
9821;SDS011;4950;46.042;14.472;2023-03-01T04:25:36;39.53;;;23.00;;
9821;SDS011;4950;46.042;14.472;2023-03-01T04:28:03;43.93;;;24.23;;
9821;SDS011;4950;46.042;14.472;2023-03-01T04:30:30;40.67;;;23.90;;
9821;SDS011;4950;46.042;14.472;2023-03-01T04:33:01;43.97;;;23.17;;
9821;SDS011;4950;46.042;14.472;2023-03-01T04:35:28;38.17;;;24.03;;
9821;SDS011;4950;46.042;14.472;2023-03-01T04:37:55;49.07;;;25.37;;
9821;SDS011;4950;46.042;14.472;2023-03-01T04:40:23;41.13;;;24.40;;
9821;SDS011;4950;46.042;14.472;2023-03-01T04:42:50;41.03;;;25.03;;
9821;SDS011;4950;46.042;14.472;2023-03-01T04:45:17;39.37;;;23.53;;
9821;SDS011;4950;46.042;14.472;2023-03-01T04:47:44;40.47;;;23.47;;
9821;SDS011;4950;46.042;14.472;2023-03-01T04:50:13;43.07;;;24.60;;
9821;SDS011;4950;46.042;14.472;2023-03-01T04:52:41;41.53;;;25.08;;
9821;SDS011;4950;46.042;14.472;2023-03-01T04:55:08;39.80;;;25.23;;
9821;SDS011;4950;46.042;14.472;2023-03-01T04:57:37;41.43;;;25.70;;
9821;SDS011;4950;46.042;14.472;2023-03-01T05:00:05;39.33;;;24.63;;
9821;SDS011;4950;46.042;14.472;2023-03-01T05:02:45;38.27;;;24.47;;
9821;SDS011;4950;46.042;14.472;2023-03-01T05:05:14;43.25;;;24.83;;
9821;SDS011;4950;46.042;14.472;2023-03-01T05:07:41;42.67;;;24.90;;
9821;SDS011;4950;46.042;14.472;2023-03-01T05:10:08;43.37;;;26.10;;
9821;SDS011;4950;46.042;14.472;2023-03-01T05:12:36;39.33;;;23.57;;
9821;SDS011;4950;46.042;14.472;2023-03-01T05:15:04;41.13;;;23.77;;
9821;SDS011;4950;46.042;14.472;2023-03-01T05:17:32;42.67;;;25.70;;
9821;SDS011;4950;46.042;14.472;2023-03-01T05:19:59;45.43;;;25.43;;
9821;SDS011;4950;46.042;14.472;2023-03-01T05:22:26;44.00;;;25.87;;
9821;SDS011;4950;46.042;14.472;2023-03-01T05:24:53;43.10;;;26.00;;
9821;SDS011;4950;46.042;14.472;2023-03-01T05:27:20;41.57;;;23.63;;
9821;SDS011;4950;46.042;14.472;2023-03-01T05:29:48;39.37;;;24.33;;
9821;SDS011;4950;46.042;14.472;2023-03-01T05:32:15;40.10;;;24.33;;
9821;SDS011;4950;46.042;14.472;2023-03-01T05:34:42;41.77;;;24.80;;
9821;SDS011;4950;46.042;14.472;2023-03-01T05:37:09;48.03;;;25.57;;
9821;SDS011;4950;46.042;14.472;2023-03-01T05:39:36;43.17;;;24.77;;
9821;SDS011;4950;46.042;14.472;2023-03-01T05:42:03;37.53;;;23.20;;
9821;SDS011;4950;46.042;14.472;2023-03-01T05:44:29;38.10;;;24.27;;
9821;SDS011;4950;46.042;14.472;2023-03-01T05:46:58;41.93;;;24.80;;
9821;SDS011;4950;46.042;14.472;2023-03-01T05:49:24;44.00;;;25.63;;
9821;SDS011;4950;46.042;14.472;2023-03-01T05:51:52;43.50;;;25.13;;
9821;SDS011;4950;46.042;14.472;2023-03-01T05:54:19;43.03;;;25.70;;
9821;SDS011;4950;46.042;14.472;2023-03-01T05:56:47;43.50;;;25.53;;
9821;SDS011;4950;46.042;14.472;2023-03-01T05:59:14;41.03;;;25.40;;
9821;SDS011;4950;46.042;14.472;2023-03-01T06:01:41;41.33;;;24.93;;
9821;SDS011;4950;46.042;14.472;2023-03-01T06:04:09;39.57;;;24.40;;
9821;SDS011;4950;46.042;14.472;2023-03-01T06:06:36;39.00;;;24.07;;
9821;SDS011;4950;46.042;14.472;2023-03-01T06:09:03;43.13;;;23.83;;
9821;SDS011;4950;46.042;14.472;2023-03-01T06:11:33;42.90;;;24.67;;
9821;SDS011;4950;46.042;14.472;2023-03-01T06:14:00;42.67;;;24.47;;
9821;SDS011;4950;46.042;14.472;2023-03-01T06:16:27;38.57;;;23.73;;
9821;SDS011;4950;46.042;14.472;2023-03-01T06:18:53;43.70;;;26.17;;
9821;SDS011;4950;46.042;14.472;2023-03-01T06:21:21;43.47;;;25.27;;
9821;SDS011;4950;46.042;14.472;2023-03-01T06:23:48;44.63;;;26.67;;
9821;SDS011;4950;46.042;14.472;2023-03-01T06:26:15;42.60;;;25.40;;
9821;SDS011;4950;46.042;14.472;2023-03-01T06:28:41;41.13;;;26.23;;
9821;SDS011;4950;46.042;14.472;2023-03-01T06:31:11;43.53;;;25.95;;
9821;SDS011;4950;46.042;14.472;2023-03-01T06:33:37;43.97;;;26.03;;
9821;SDS011;4950;46.042;14.472;2023-03-01T06:36:04;43.60;;;24.30;;
9821;SDS011;4950;46.042;14.472;2023-03-01T06:38:33;42.20;;;23.93;;
9821;SDS011;4950;46.042;14.472;2023-03-01T06:41:00;38.60;;;23.90;;
9821;SDS011;4950;46.042;14.472;2023-03-01T06:43:26;42.73;;;25.23;;
9821;SDS011;4950;46.042;14.472;2023-03-01T06:45:53;46.60;;;25.50;;
9821;SDS011;4950;46.042;14.472;2023-03-01T06:48:20;44.37;;;26.30;;
9821;SDS011;4950;46.042;14.472;2023-03-01T06:50:47;46.27;;;25.93;;
9821;SDS011;4950;46.042;14.472;2023-03-01T06:53:13;40.73;;;25.03;;
9821;SDS011;4950;46.042;14.472;2023-03-01T06:55:42;40.37;;;24.57;;
9821;SDS011;4950;46.042;14.472;2023-03-01T06:58:09;48.70;;;28.00;;
9821;SDS011;4950;46.042;14.472;2023-03-01T07:00:36;43.87;;;26.03;;
9821;SDS011;4950;46.042;14.472;2023-03-01T07:03:02;42.23;;;25.63;;
9821;SDS011;4950;46.042;14.472;2023-03-01T07:05:29;41.67;;;24.23;;
9821;SDS011;4950;46.042;14.472;2023-03-01T07:07:56;43.00;;;25.17;;
9821;SDS011;4950;46.042;14.472;2023-03-01T07:10:23;42.03;;;26.13;;
9821;SDS011;4950;46.042;14.472;2023-03-01T07:12:52;39.73;;;24.63;;
9821;SDS011;4950;46.042;14.472;2023-03-01T07:15:20;40.17;;;23.93;;
9821;SDS011;4950;46.042;14.472;2023-03-01T07:17:47;42.70;;;24.77;;
9821;SDS011;4950;46.042;14.472;2023-03-01T07:20:16;44.00;;;26.13;;
9821;SDS011;4950;46.042;14.472;2023-03-01T07:22:42;42.67;;;25.77;;
9821;SDS011;4950;46.042;14.472;2023-03-01T07:25:10;43.47;;;25.37;;
9821;SDS011;4950;46.042;14.472;2023-03-01T07:27:36;41.23;;;25.57;;
9821;SDS011;4950;46.042;14.472;2023-03-01T07:30:05;45.17;;;26.47;;
9821;SDS011;4950;46.042;14.472;2023-03-01T07:32:33;41.10;;;25.90;;
9821;SDS011;4950;46.042;14.472;2023-03-01T07:35:00;42.00;;;24.93;;
9821;SDS011;4950;46.042;14.472;2023-03-01T07:37:26;38.17;;;24.13;;
9821;SDS011;4950;46.042;14.472;2023-03-01T07:39:53;41.53;;;24.87;;
9821;SDS011;4950;46.042;14.472;2023-03-01T07:42:20;40.80;;;24.53;;
9821;SDS011;4950;46.042;14.472;2023-03-01T07:44:46;44.00;;;24.77;;
9821;SDS011;4950;46.042;14.472;2023-03-01T07:47:15;42.67;;;24.47;;
9821;SDS011;4950;46.042;14.472;2023-03-01T07:49:41;45.73;;;26.60;;
9821;SDS011;4950;46.042;14.472;2023-03-01T07:52:09;41.47;;;25.20;;
9821;SDS011;4950;46.042;14.472;2023-03-01T07:54:36;38.50;;;24.67;;
9821;SDS011;4950;46.042;14.472;2023-03-01T07:57:03;37.30;;;23.23;;
9821;SDS011;4950;46.042;14.472;2023-03-01T07:59:30;40.53;;;24.30;;
9821;SDS011;4950;46.042;14.472;2023-03-01T08:01:57;37.40;;;23.90;;
9821;SDS011;4950;46.042;14.472;2023-03-01T08:04:25;36.67;;;23.40;;
9821;SDS011;4950;46.042;14.472;2023-03-01T08:06:53;46.07;;;24.87;;
9821;SDS011;4950;46.042;14.472;2023-03-01T08:09:21;44.83;;;25.13;;
9821;SDS011;4950;46.042;14.472;2023-03-01T08:11:48;40.67;;;25.57;;
9821;SDS011;4950;46.042;14.472;2023-03-01T08:14:14;42.20;;;25.23;;
9821;SDS011;4950;46.042;14.472;2023-03-01T08:16:41;39.37;;;25.00;;
9821;SDS011;4950;46.042;14.472;2023-03-01T08:19:09;38.63;;;24.03;;
9821;SDS011;4950;46.042;14.472;2023-03-01T08:21:38;44.40;;;26.37;;
9821;SDS011;4950;46.042;14.472;2023-03-01T08:24:06;39.03;;;25.17;;
9821;SDS011;4950;46.042;14.472;2023-03-01T08:29:02;42.83;;;25.00;;
9821;SDS011;4950;46.042;14.472;2023-03-01T08:31:30;43.53;;;25.47;;
9821;SDS011;4950;46.042;14.472;2023-03-01T08:34:00;41.87;;;26.33;;
9821;SDS011;4950;46.042;14.472;2023-03-01T08:36:29;41.67;;;25.13;;
9821;SDS011;4950;46.042;14.472;2023-03-01T08:39:00;43.55;;;26.10;;
9821;SDS011;4950;46.042;14.472;2023-03-01T08:41:26;42.87;;;26.53;;
9821;SDS011;4950;46.042;14.472;2023-03-01T08:43:54;42.33;;;26.63;;
9821;SDS011;4950;46.042;14.472;2023-03-01T08:48:50;41.97;;;25.57;;
9821;SDS011;4950;46.042;14.472;2023-03-01T08:51:17;43.70;;;25.77;;
9821;SDS011;4950;46.042;14.472;2023-03-01T08:53:45;44.27;;;26.57;;
9821;SDS011;4950;46.042;14.472;2023-03-01T08:56:14;46.67;;;26.93;;
9821;SDS011;4950;46.042;14.472;2023-03-01T08:58:43;44.72;;;26.73;;
9821;SDS011;4950;46.042;14.472;2023-03-01T09:01:11;49.28;;;27.02;;
9821;SDS011;4950;46.042;14.472;2023-03-01T09:03:39;44.95;;;26.95;;
9821;SDS011;4950;46.042;14.472;2023-03-01T09:06:06;46.87;;;26.73;;
9821;SDS011;4950;46.042;14.472;2023-03-01T09:08:34;46.00;;;26.03;;
9821;SDS011;4950;46.042;14.472;2023-03-01T09:11:01;44.67;;;27.43;;
9821;SDS011;4950;46.042;14.472;2023-03-01T09:13:29;39.70;;;24.90;;
9821;SDS011;4950;46.042;14.472;2023-03-01T09:15:57;45.43;;;25.30;;
9821;SDS011;4950;46.042;14.472;2023-03-01T09:18:24;47.63;;;27.83;;
9821;SDS011;4950;46.042;14.472;2023-03-01T09:20:50;41.92;;;25.25;;
9821;SDS011;4950;46.042;14.472;2023-03-01T09:23:19;45.13;;;25.10;;
9821;SDS011;4950;46.042;14.472;2023-03-01T09:25:46;41.37;;;23.93;;
9821;SDS011;4950;46.042;14.472;2023-03-01T09:28:13;39.27;;;22.63;;
9821;SDS011;4950;46.042;14.472;2023-03-01T09:30:41;38.42;;;23.10;;
9821;SDS011;4950;46.042;14.472;2023-03-01T09:33:08;36.17;;;23.30;;
9821;SDS011;4950;46.042;14.472;2023-03-01T09:35:39;32.67;;;21.75;;
9821;SDS011;4950;46.042;14.472;2023-03-01T09:38:11;46.20;;;25.87;;
9821;SDS011;4950;46.042;14.472;2023-03-01T09:40:41;38.07;;;23.37;;
9821;SDS011;4950;46.042;14.472;2023-03-01T09:43:13;39.10;;;24.40;;
9821;SDS011;4950;46.042;14.472;2023-03-01T09:45:47;40.27;;;24.73;;
9821;SDS011;4950;46.042;14.472;2023-03-01T09:48:20;37.27;;;23.23;;
9821;SDS011;4950;46.042;14.472;2023-03-01T09:50:48;40.15;;;24.67;;
9821;SDS011;4950;46.042;14.472;2023-03-01T09:53:17;43.20;;;22.67;;
9821;SDS011;4950;46.042;14.472;2023-03-01T09:58:28;34.47;;;20.27;;
9821;SDS011;4950;46.042;14.472;2023-03-01T10:01:04;36.47;;;19.70;;
9821;SDS011;4950;46.042;14.472;2023-03-01T10:03:43;27.87;;;17.37;;
9821;SDS011;4950;46.042;14.472;2023-03-01T10:06:19;32.70;;;20.10;;
9821;SDS011;4950;46.042;14.472;2023-03-01T10:08:49;30.73;;;19.10;;
9821;SDS011;4950;46.042;14.472;2023-03-01T10:11:22;28.40;;;18.37;;
9821;SDS011;4950;46.042;14.472;2023-03-01T10:13:54;34.23;;;19.13;;
9821;SDS011;4950;46.042;14.472;2023-03-01T10:16:27;30.42;;;18.55;;
9821;SDS011;4950;46.042;14.472;2023-03-01T10:19:03;29.77;;;18.87;;
9821;SDS011;4950;46.042;14.472;2023-03-01T10:21:33;37.30;;;18.17;;
9821;SDS011;4950;46.042;14.472;2023-03-01T10:24:08;33.17;;;18.13;;
9821;SDS011;4950;46.042;14.472;2023-03-01T10:26:48;29.87;;;18.57;;
9821;SDS011;4950;46.042;14.472;2023-03-01T10:29:22;32.77;;;17.77;;
9821;SDS011;4950;46.042;14.472;2023-03-01T10:31:53;32.13;;;17.85;;
9821;SDS011;4950;46.042;14.472;2023-03-01T10:34:21;32.83;;;17.80;;
9821;SDS011;4950;46.042;14.472;2023-03-01T10:36:55;29.90;;;18.03;;
9821;SDS011;4950;46.042;14.472;2023-03-01T10:39:24;31.77;;;17.80;;
9821;SDS011;4950;46.042;14.472;2023-03-01T10:41:54;27.00;;;17.65;;
9821;SDS011;4950;46.042;14.472;2023-03-01T10:47:14;32.70;;;18.65;;
9821;SDS011;4950;46.042;14.472;2023-03-01T10:49:52;28.55;;;17.25;;
9821;SDS011;4950;46.042;14.472;2023-03-01T10:52:21;32.47;;;19.42;;
9821;SDS011;4950;46.042;14.472;2023-03-01T10:54:54;30.77;;;17.70;;
9821;SDS011;4950;46.042;14.472;2023-03-01T10:57:29;30.15;;;18.73;;
9821;SDS011;4950;46.042;14.472;2023-03-01T11:00:13;33.38;;;18.73;;
9821;SDS011;4950;46.042;14.472;2023-03-01T11:03:03;37.42;;;17.95;;
9821;SDS011;4950;46.042;14.472;2023-03-01T11:05:37;32.40;;;18.55;;
9821;SDS011;4950;46.042;14.472;2023-03-01T11:08:26;37.90;;;19.25;;
9821;SDS011;4950;46.042;14.472;2023-03-01T11:11:04;40.78;;;20.35;;
9821;SDS011;4950;46.042;14.472;2023-03-01T11:13:32;31.05;;;19.20;;
9821;SDS011;4950;46.042;14.472;2023-03-01T11:16:00;36.15;;;19.15;;
9821;SDS011;4950;46.042;14.472;2023-03-01T11:18:30;33.20;;;18.77;;
9821;SDS011;4950;46.042;14.472;2023-03-01T11:20:58;37.83;;;20.83;;
9821;SDS011;4950;46.042;14.472;2023-03-01T11:23:28;36.20;;;19.88;;
9821;SDS011;4950;46.042;14.472;2023-03-01T11:25:57;34.33;;;20.88;;
9821;SDS011;4950;46.042;14.472;2023-03-01T11:28:27;33.35;;;21.33;;
9821;SDS011;4950;46.042;14.472;2023-03-01T11:30:57;36.83;;;22.48;;
9821;SDS011;4950;46.042;14.472;2023-03-01T11:33:33;38.85;;;21.90;;
9821;SDS011;4950;46.042;14.472;2023-03-01T11:36:05;37.95;;;23.17;;
9821;SDS011;4950;46.042;14.472;2023-03-01T11:38:37;34.55;;;20.42;;
9821;SDS011;4950;46.042;14.472;2023-03-01T11:41:06;29.58;;;18.08;;
9821;SDS011;4950;46.042;14.472;2023-03-01T11:43:36;31.00;;;17.38;;
9821;SDS011;4950;46.042;14.472;2023-03-01T11:49:16;34.60;;;18.95;;
9821;SDS011;4950;46.042;14.472;2023-03-01T11:52:08;37.67;;;19.95;;
9821;SDS011;4950;46.042;14.472;2023-03-01T11:54:47;33.22;;;17.98;;
9821;SDS011;4950;46.042;14.472;2023-03-01T11:57:28;29.65;;;17.13;;
9821;SDS011;4950;46.042;14.472;2023-03-01T12:00:18;30.70;;;15.18;;
9821;SDS011;4950;46.042;14.472;2023-03-01T12:02:56;28.90;;;16.67;;
9821;SDS011;4950;46.042;14.472;2023-03-01T12:09:11;27.52;;;15.30;;
9821;SDS011;4950;46.042;14.472;2023-03-01T12:11:53;30.67;;;17.75;;
9821;SDS011;4950;46.042;14.472;2023-03-01T12:14:37;27.10;;;16.00;;
9821;SDS011;4950;46.042;14.472;2023-03-01T12:17:25;30.38;;;17.13;;
9821;SDS011;4950;46.042;14.472;2023-03-01T12:20:12;28.08;;;16.00;;
9821;SDS011;4950;46.042;14.472;2023-03-01T12:22:52;27.35;;;15.98;;
9821;SDS011;4950;46.042;14.472;2023-03-01T12:25:35;32.75;;;16.90;;
9821;SDS011;4950;46.042;14.472;2023-03-01T12:28:12;27.10;;;15.80;;
9821;SDS011;4950;46.042;14.472;2023-03-01T12:30:54;26.90;;;16.13;;
9821;SDS011;4950;46.042;14.472;2023-03-01T12:33:43;34.03;;;18.52;;
9821;SDS011;4950;46.042;14.472;2023-03-01T12:36:25;35.22;;;20.52;;
9821;SDS011;4950;46.042;14.472;2023-03-01T12:39:07;36.03;;;22.17;;
9821;SDS011;4950;46.042;14.472;2023-03-01T12:41:48;40.53;;;22.73;;
9821;SDS011;4950;46.042;14.472;2023-03-01T12:44:32;36.78;;;22.05;;
9821;SDS011;4950;46.042;14.472;2023-03-01T12:47:24;33.97;;;21.05;;
9821;SDS011;4950;46.042;14.472;2023-03-01T12:50:01;34.53;;;21.60;;
9821;SDS011;4950;46.042;14.472;2023-03-01T12:52:33;33.77;;;21.23;;
9821;SDS011;4950;46.042;14.472;2023-03-01T12:55:06;36.80;;;21.40;;
9821;SDS011;4950;46.042;14.472;2023-03-01T12:57:53;35.57;;;21.87;;
9821;SDS011;4950;46.042;14.472;2023-03-01T13:00:27;37.13;;;22.83;;
9821;SDS011;4950;46.042;14.472;2023-03-01T13:02:59;42.70;;;23.53;;
9821;SDS011;4950;46.042;14.472;2023-03-01T13:05:34;37.23;;;22.53;;
9821;SDS011;4950;46.042;14.472;2023-03-01T13:10:43;36.53;;;22.40;;
9821;SDS011;4950;46.042;14.472;2023-03-01T13:13:20;42.80;;;24.33;;
9821;SDS011;4950;46.042;14.472;2023-03-01T13:15:48;39.53;;;24.33;;
9821;SDS011;4950;46.042;14.472;2023-03-01T13:18:29;38.97;;;23.37;;
9821;SDS011;4950;46.042;14.472;2023-03-01T13:20:58;38.67;;;22.87;;
9821;SDS011;4950;46.042;14.472;2023-03-01T13:23:28;45.13;;;22.77;;
9821;SDS011;4950;46.042;14.472;2023-03-01T13:26:05;39.50;;;22.27;;
9821;SDS011;4950;46.042;14.472;2023-03-01T13:28:49;37.40;;;21.40;;
9821;SDS011;4950;46.042;14.472;2023-03-01T13:37:18;34.85;;;21.45;;
9821;SDS011;4950;46.042;14.472;2023-03-01T13:39:57;36.00;;;21.50;;
9821;SDS011;4950;46.042;14.472;2023-03-01T13:42:31;31.50;;;20.17;;
9821;SDS011;4950;46.042;14.472;2023-03-01T13:45:17;35.57;;;21.50;;
9821;SDS011;4950;46.042;14.472;2023-03-01T13:47:48;37.73;;;20.87;;
9821;SDS011;4950;46.042;14.472;2023-03-01T13:50:19;33.50;;;19.87;;
9821;SDS011;4950;46.042;14.472;2023-03-01T13:52:50;35.43;;;21.20;;
9821;SDS011;4950;46.042;14.472;2023-03-01T13:55:23;31.00;;;19.83;;
9821;SDS011;4950;46.042;14.472;2023-03-01T13:57:54;33.30;;;20.20;;
9821;SDS011;4950;46.042;14.472;2023-03-01T14:00:28;29.73;;;19.23;;
9821;SDS011;4950;46.042;14.472;2023-03-01T14:03:11;35.27;;;20.80;;
9821;SDS011;4950;46.042;14.472;2023-03-01T14:05:40;35.63;;;20.90;;
9821;SDS011;4950;46.042;14.472;2023-03-01T14:08:21;30.23;;;19.50;;
9821;SDS011;4950;46.042;14.472;2023-03-01T14:10:53;38.57;;;22.37;;
9821;SDS011;4950;46.042;14.472;2023-03-01T14:13:30;39.23;;;22.77;;
9821;SDS011;4950;46.042;14.472;2023-03-01T14:16:18;36.33;;;21.93;;
9821;SDS011;4950;46.042;14.472;2023-03-01T14:18:53;32.13;;;20.10;;
9821;SDS011;4950;46.042;14.472;2023-03-01T14:21:27;34.23;;;21.43;;
9821;SDS011;4950;46.042;14.472;2023-03-01T14:23:56;35.60;;;22.30;;
9821;SDS011;4950;46.042;14.472;2023-03-01T14:26:24;33.10;;;21.43;;
9821;SDS011;4950;46.042;14.472;2023-03-01T14:28:50;31.07;;;21.30;;
9821;SDS011;4950;46.042;14.472;2023-03-01T14:31:36;35.23;;;22.03;;
9821;SDS011;4950;46.042;14.472;2023-03-01T14:34:04;31.97;;;19.93;;
9821;SDS011;4950;46.042;14.472;2023-03-01T14:36:32;30.90;;;18.57;;
9821;SDS011;4950;46.042;14.472;2023-03-01T14:39:00;31.88;;;19.83;;
9821;SDS011;4950;46.042;14.472;2023-03-01T14:41:32;29.57;;;17.43;;
9821;SDS011;4950;46.042;14.472;2023-03-01T14:44:01;33.15;;;19.33;;
9821;SDS011;4950;46.042;14.472;2023-03-01T14:49:01;30.63;;;19.27;;
9821;SDS011;4950;46.042;14.472;2023-03-01T14:51:29;31.20;;;19.40;;
9821;SDS011;4950;46.042;14.472;2023-03-01T14:53:57;31.33;;;19.17;;
9821;SDS011;4950;46.042;14.472;2023-03-01T14:56:23;30.93;;;20.27;;
9821;SDS011;4950;46.042;14.472;2023-03-01T14:58:51;29.47;;;19.00;;
9821;SDS011;4950;46.042;14.472;2023-03-01T15:01:18;32.30;;;19.33;;
9821;SDS011;4950;46.042;14.472;2023-03-01T15:03:46;29.60;;;17.73;;
9821;SDS011;4950;46.042;14.472;2023-03-01T15:06:17;31.07;;;19.73;;
9821;SDS011;4950;46.042;14.472;2023-03-01T15:08:47;19.13;;;11.50;;
9821;SDS011;4950;46.042;14.472;2023-03-01T15:11:17;20.73;;;10.80;;
9821;SDS011;4950;46.042;14.472;2023-03-01T15:13:49;20.63;;;11.13;;
9821;SDS011;4950;46.042;14.472;2023-03-01T15:16:17;20.17;;;10.55;;
9821;SDS011;4950;46.042;14.472;2023-03-01T15:18:46;28.30;;;17.73;;
9821;SDS011;4950;46.042;14.472;2023-03-01T15:21:17;27.90;;;18.30;;